Terminal Aerodrome Forecast
Issued by NWS

Home | Current Version | Previous Version | Text Only | Print | Product List | Glossary On
Versions: 1 2 3 4 5 6 7 8 9 10 11 12 13 14 15 16
393
FTAK31 PAJN 230109 AAB
TAFAGY
TAF AMD
PAGY 230109Z 2301/2324 21006KT P6SM OVC029
      TEMPO 2301/2305 26006KT 2SM -SN OVC020
     FM230900 04008KT P6SM BKN060
      AMD LTD TO CLD VIS AND WIND=

USA.gov is the U.S. government's official web portal to all federal, state and local government web resources and services.